Startpagina
METAR-TAF:

METAR-TAF

Vliegvelden :

Aéroport de Cherbourg-Maupertus

Cherbourg, Frankrijk

breedte: 49-39N, lengte: 001-28W, hoogte: 138 m

Actueel weer

Dit bericht is 23 minuten geleden gemaakt, om 04:00 UTC
Wind 12 kt uit het westnoordwesten, variërend tussen het westen en het noordnoordwesten
Temperatuur 10°C
Vochtigheid 71%
Druk 1003 hPa
Zicht 10 km of meer
Gebroken wolken op 2400 ft

METAR: LFRC 060400Z AUTO 30012KT 270V330 9999 BKN024 10/05 Q1003

Tijdstip: 06:23 (04:23 UTC)


TAF: ontbreekt

Waarnemingen en weersverwachtingen van meer dan 4000 vliegvelden (METAR en TAF).

De beschikbare stations zijn de gele en rode punten op de kaart.

Ga met uw muis naar het station om de naam te zien.

Klik dan om waarnemingen en weersverwachtingen te zien.

kaart wijzigen: klik op de groene knoppen met een zwart kruis om in te zoomen, op de groene knop met een streepje om uit te zoomen of op de groene pijlen voor aangrenzende kaarten.


METAR-TAF: